Orange City, Iowa
Current Conditions -  °F | °C
As of 10:35 PM on Saturday 20 Dec 2014 (Local Time) from KORC Reporting Station
Haze Haze  
Wind Chill: 23°   Ceiling: 300
Heat Index: 32°   Visibility: 1mi
Dew Point: 30°   Wind: 13mph
Humidity: 93%   Direction: 170°S
Pressure: 29.99"   Gusts: NA
Location:  43.01°N, 96.06°W
Report Text: KORC 210435Z AUTO 17011KT 1SM BR OVC003 00/M01 A2999 RMK AO2
Loading
Personal Weather Stations






























Interactive Weather Map New forecast layout! Learn more

10-Day Weather Forecast

Advertisements
Track Severe Weather on mobile